MPH912 KJAX-KMEM
Flight info
| Callsign | MPH912 |
|---|---|
| Flight time | 1h 30m |
| Altitude | 30000 |
| Route | JETIN2 CAPPS DEEDA Q116 GOOGY WASER VANZE3 |
| Aircraft | MD11/H-SDE1E2E3FGHIJ2J3J4J5M1RWXY/LB1D1 |
Departure
| Time | 2026-05-04 02:25 |
|---|---|
| Airport | Jacksonville International Airport (KJAX) |
Arrival
| Time | 2026-05-04 03:56 |
|---|---|
| Airport | Memphis International Airport (KMEM) |
| Time | Latitude | Longitude | Altitude | Speed | Heading |
|---|---|---|---|---|---|
| 2026-05-04 02:04 | 30.48634 | -81.68170 | 47 ft | 0 kts | 281° |
| 2026-05-04 02:16 | 30.48631 | -81.68153 | 44 ft | 3 kts | 270° |
| 2026-05-04 02:17 | 30.48634 | -81.68130 | 43 ft | 3 kts | 235° |
| 2026-05-04 02:17 | 30.48648 | -81.68114 | 41 ft | 1 kts | 200° |
| 2026-05-04 02:17 | 30.48648 | -81.68113 | 41 ft | 0 kts | 198° |
| 2026-05-04 02:19 | 30.48639 | -81.68115 | 42 ft | 5 kts | 189° |
| 2026-05-04 02:19 | 30.48568 | -81.68126 | 45 ft | 16 kts | 188° |
| 2026-05-04 02:20 | 30.48434 | -81.68151 | 43 ft | 22 kts | 204° |
| 2026-05-04 02:20 | 30.48362 | -81.68300 | 43 ft | 24 kts | 251° |
| 2026-05-04 02:20 | 30.48309 | -81.68477 | 40 ft | 24 kts | 252° |
| 2026-05-04 02:20 | 30.48369 | -81.68655 | 40 ft | 27 kts | 310° |
| 2026-05-04 02:21 | 30.48499 | -81.68829 | 41 ft | 31 kts | 311° |
| 2026-05-04 02:21 | 30.48652 | -81.69028 | 38 ft | 35 kts | 311° |
| 2026-05-04 02:21 | 30.48817 | -81.69249 | 38 ft | 38 kts | 310° |
| 2026-05-04 02:21 | 30.48991 | -81.69485 | 42 ft | 39 kts | 310° |
| 2026-05-04 02:22 | 30.49168 | -81.69723 | 41 ft | 38 kts | 310° |
| 2026-05-04 02:22 | 30.49299 | -81.69900 | 41 ft | 16 kts | 310° |
| 2026-05-04 02:22 | 30.49302 | -81.69977 | 40 ft | 9 kts | 231° |
| 2026-05-04 02:22 | 30.49290 | -81.69992 | 41 ft | 0 kts | 227° |
| 2026-05-04 02:23 | 30.49287 | -81.69996 | 41 ft | 0 kts | 226° |
| 2026-05-04 02:23 | 30.49286 | -81.69997 | 41 ft | 0 kts | 226° |
| 2026-05-04 02:23 | 30.49285 | -81.69998 | 41 ft | 1 kts | 226° |
| 2026-05-04 02:24 | 30.49240 | -81.70045 | 41 ft | 17 kts | 217° |
| 2026-05-04 02:24 | 30.49183 | -81.70045 | 43 ft | 3 kts | 133° |
| 2026-05-04 02:24 | 30.49182 | -81.70042 | 43 ft | 0 kts | 129° |
| 2026-05-04 02:24 | 30.49098 | -81.69924 | 43 ft | 58 kts | 130° |
| 2026-05-04 02:25 | 30.48650 | -81.69315 | 36 ft | 137 kts | 131° |
| 2026-05-04 02:25 | 30.47918 | -81.68316 | 190 ft | 177 kts | 129° |
| 2026-05-04 02:25 | 30.47088 | -81.67221 | 787 ft | 189 kts | 130° |
| 2026-05-04 02:25 | 30.46195 | -81.66073 | 1392 ft | 189 kts | 131° |
| 2026-05-04 02:26 | 30.45251 | -81.64884 | 2082 ft | 208 kts | 131° |
| 2026-05-04 02:26 | 30.44242 | -81.63585 | 2485 ft | 231 kts | 130° |
| 2026-05-04 02:26 | 30.43124 | -81.62112 | 2869 ft | 252 kts | 130° |
| 2026-05-04 02:26 | 30.41859 | -81.60661 | 2954 ft | 258 kts | 146° |
| 2026-05-04 02:27 | 30.40201 | -81.59980 | 3136 ft | 259 kts | 178° |
| 2026-05-04 02:27 | 30.38442 | -81.60381 | 3897 ft | 264 kts | 205° |
| 2026-05-04 02:27 | 30.37001 | -81.61715 | 4626 ft | 267 kts | 234° |
| 2026-05-04 02:27 | 30.36266 | -81.63641 | 5386 ft | 266 kts | 262° |
| 2026-05-04 02:28 | 30.36355 | -81.65765 | 6121 ft | 266 kts | 284° |
| 2026-05-04 02:28 | 30.36873 | -81.67843 | 6811 ft | 269 kts | 288° |
| 2026-05-04 02:28 | 30.37434 | -81.69894 | 7524 ft | 271 kts | 288° |
| 2026-05-04 02:28 | 30.38012 | -81.72003 | 8279 ft | 273 kts | 287° |
| 2026-05-04 02:29 | 30.38591 | -81.74115 | 9036 ft | 275 kts | 287° |
| 2026-05-04 02:29 | 30.39167 | -81.76218 | 9811 ft | 277 kts | 287° |
| 2026-05-04 02:29 | 30.39757 | -81.78369 | 10505 ft | 279 kts | 287° |
| 2026-05-04 02:29 | 30.40345 | -81.80517 | 11200 ft | 280 kts | 287° |
| 2026-05-04 02:30 | 30.40895 | -81.82662 | 11910 ft | 280 kts | 283° |
| 2026-05-04 02:30 | 30.41305 | -81.84874 | 12632 ft | 281 kts | 279° |
| 2026-05-04 02:30 | 30.41575 | -81.87171 | 13041 ft | 289 kts | 275° |
| 2026-05-04 02:30 | 30.41728 | -81.89572 | 13246 ft | 309 kts | 272° |
| 2026-05-04 02:31 | 30.41795 | -81.92114 | 13389 ft | 329 kts | 271° |
| 2026-05-04 02:31 | 30.41799 | -81.94860 | 13542 ft | 349 kts | 269° |
| 2026-05-04 02:31 | 30.41755 | -81.97688 | 14104 ft | 355 kts | 269° |
| 2026-05-04 02:31 | 30.41667 | -82.00571 | 14745 ft | 357 kts | 265° |
| 2026-05-04 02:32 | 30.41293 | -82.03419 | 15405 ft | 358 kts | 258° |
| 2026-05-04 02:32 | 30.40711 | -82.06216 | 16071 ft | 360 kts | 256° |
| 2026-05-04 02:32 | 30.40052 | -82.09030 | 16724 ft | 362 kts | 255° |
| 2026-05-04 02:32 | 30.39645 | -82.11882 | 17335 ft | 363 kts | 267° |
| 2026-05-04 02:33 | 30.39687 | -82.14825 | 17974 ft | 366 kts | 272° |
| 2026-05-04 02:33 | 30.39913 | -82.17790 | 18605 ft | 369 kts | 274° |
| 2026-05-04 02:33 | 30.40191 | -82.20724 | 19142 ft | 371 kts | 274° |
| 2026-05-04 02:33 | 30.40481 | -82.23720 | 19686 ft | 373 kts | 274° |
| 2026-05-04 02:34 | 30.40760 | -82.26692 | 20207 ft | 375 kts | 273° |
| 2026-05-04 02:34 | 30.41034 | -82.29716 | 20728 ft | 377 kts | 273° |
| 2026-05-04 02:34 | 30.41300 | -82.32738 | 21248 ft | 379 kts | 272° |
| 2026-05-04 02:34 | 30.41564 | -82.35794 | 21759 ft | 382 kts | 272° |
| 2026-05-04 02:35 | 30.41826 | -82.38872 | 22292 ft | 384 kts | 272° |
| 2026-05-04 02:35 | 30.42088 | -82.41966 | 22804 ft | 386 kts | 272° |
| 2026-05-04 02:35 | 30.42347 | -82.45044 | 23305 ft | 388 kts | 272° |
| 2026-05-04 02:35 | 30.42609 | -82.48176 | 23792 ft | 391 kts | 271° |
| 2026-05-04 02:36 | 30.42869 | -82.51285 | 24195 ft | 393 kts | 271° |
| 2026-05-04 02:36 | 30.43134 | -82.54467 | 24610 ft | 395 kts | 271° |
| 2026-05-04 02:36 | 30.43395 | -82.57609 | 25023 ft | 397 kts | 271° |
| 2026-05-04 02:36 | 30.43661 | -82.60815 | 25432 ft | 399 kts | 271° |
| 2026-05-04 02:37 | 30.43926 | -82.64031 | 25835 ft | 401 kts | 271° |
| 2026-05-04 02:37 | 30.44207 | -82.67228 | 26221 ft | 403 kts | 272° |
| 2026-05-04 02:37 | 30.44541 | -82.70478 | 26623 ft | 406 kts | 273° |
| 2026-05-04 02:37 | 30.44900 | -82.73738 | 27017 ft | 408 kts | 273° |
| 2026-05-04 02:38 | 30.45268 | -82.76987 | 27394 ft | 410 kts | 273° |
| 2026-05-04 02:38 | 30.45644 | -82.80288 | 27772 ft | 412 kts | 273° |
| 2026-05-04 02:38 | 30.46015 | -82.83558 | 28142 ft | 414 kts | 273° |
| 2026-05-04 02:38 | 30.46391 | -82.86888 | 28507 ft | 416 kts | 273° |
| 2026-05-04 02:39 | 30.46767 | -82.90229 | 28882 ft | 418 kts | 273° |
| 2026-05-04 02:39 | 30.47137 | -82.93540 | 29242 ft | 419 kts | 273° |
| 2026-05-04 02:39 | 30.47513 | -82.96909 | 29599 ft | 421 kts | 273° |
| 2026-05-04 02:39 | 30.47890 | -83.00292 | 29919 ft | 424 kts | 273° |
| 2026-05-04 02:40 | 30.48647 | -83.07150 | 29995 ft | 434 kts | 274° |
| 2026-05-04 02:40 | 30.49418 | -83.14117 | 29991 ft | 433 kts | 274° |
| 2026-05-04 02:41 | 30.50176 | -83.21009 | 29991 ft | 432 kts | 274° |
| 2026-05-04 02:41 | 30.50932 | -83.27933 | 29992 ft | 432 kts | 274° |
| 2026-05-04 02:42 | 30.51680 | -83.34824 | 29990 ft | 432 kts | 274° |
| 2026-05-04 02:42 | 30.52429 | -83.41752 | 29993 ft | 432 kts | 274° |
| 2026-05-04 02:43 | 30.53171 | -83.48654 | 29994 ft | 433 kts | 274° |
| 2026-05-04 02:43 | 30.53688 | -83.55572 | 29987 ft | 431 kts | 270° |
| 2026-05-04 02:44 | 30.53866 | -83.62532 | 29985 ft | 431 kts | 269° |
| 2026-05-04 02:44 | 30.54013 | -83.69470 | 29988 ft | 431 kts | 269° |
| 2026-05-04 02:45 | 30.54183 | -83.76406 | 29985 ft | 431 kts | 270° |
| 2026-05-04 02:45 | 30.54815 | -83.83337 | 29988 ft | 435 kts | 279° |
| 2026-05-04 02:46 | 30.56805 | -83.89997 | 29985 ft | 442 kts | 292° |
| 2026-05-04 02:46 | 30.60221 | -83.96004 | 29992 ft | 452 kts | 305° |
| 2026-05-04 02:47 | 30.64709 | -84.01178 | 29994 ft | 458 kts | 312° |
| 2026-05-04 02:47 | 30.69478 | -84.06108 | 29997 ft | 459 kts | 313° |
| 2026-05-04 02:48 | 30.74218 | -84.11092 | 29993 ft | 459 kts | 312° |
| 2026-05-04 02:48 | 30.78894 | -84.16104 | 29995 ft | 459 kts | 312° |
| 2026-05-04 02:49 | 30.83580 | -84.21160 | 29990 ft | 459 kts | 312° |
| 2026-05-04 02:49 | 30.88252 | -84.26210 | 29988 ft | 459 kts | 312° |
| 2026-05-04 02:50 | 30.92920 | -84.31260 | 29985 ft | 459 kts | 313° |
| 2026-05-04 02:50 | 30.96824 | -84.35487 | 29987 ft | 459 kts | 313° |
| 2026-05-04 02:51 | 31.02282 | -84.41405 | 29995 ft | 458 kts | 313° |
| 2026-05-04 02:51 | 31.06929 | -84.46453 | 29996 ft | 458 kts | 313° |
| 2026-05-04 02:52 | 31.10806 | -84.50669 | 29995 ft | 458 kts | 314° |
| 2026-05-04 02:52 | 31.15449 | -84.55724 | 29996 ft | 457 kts | 314° |
| 2026-05-04 02:53 | 31.20113 | -84.60811 | 29993 ft | 456 kts | 314° |
| 2026-05-04 02:53 | 31.24738 | -84.65871 | 29990 ft | 455 kts | 315° |
| 2026-05-04 02:54 | 31.29342 | -84.70929 | 30004 ft | 454 kts | 315° |
| 2026-05-04 02:54 | 31.33953 | -84.75989 | 30010 ft | 454 kts | 316° |
| 2026-05-04 02:55 | 31.40850 | -84.83556 | 30012 ft | 452 kts | 316° |
| 2026-05-04 02:56 | 31.45404 | -84.88560 | 30016 ft | 452 kts | 316° |
| 2026-05-04 02:56 | 31.50003 | -84.93603 | 30014 ft | 451 kts | 318° |
| 2026-05-04 02:57 | 31.54862 | -84.98222 | 30005 ft | 451 kts | 322° |
| 2026-05-04 02:57 | 31.59894 | -85.02612 | 30003 ft | 451 kts | 323° |
| 2026-05-04 02:58 | 31.64916 | -85.06992 | 29997 ft | 450 kts | 323° |
| 2026-05-04 02:58 | 31.69934 | -85.11413 | 29997 ft | 450 kts | 323° |
| 2026-05-04 02:59 | 31.74912 | -85.15820 | 29997 ft | 450 kts | 323° |
| 2026-05-04 02:59 | 31.79906 | -85.20250 | 29999 ft | 450 kts | 323° |
| 2026-05-04 03:00 | 31.84882 | -85.24669 | 30004 ft | 450 kts | 323° |
| 2026-05-04 03:00 | 31.89871 | -85.29106 | 29996 ft | 450 kts | 323° |
| 2026-05-04 03:01 | 31.94869 | -85.33556 | 30003 ft | 449 kts | 323° |
| 2026-05-04 03:01 | 31.99832 | -85.37982 | 29989 ft | 449 kts | 323° |
| 2026-05-04 03:02 | 32.04891 | -85.42499 | 29995 ft | 460 kts | 323° |
| 2026-05-04 03:02 | 32.09983 | -85.47053 | 30122 ft | 461 kts | 323° |
| 2026-05-04 03:03 | 32.15088 | -85.51624 | 30138 ft | 461 kts | 322° |
| 2026-05-04 03:03 | 32.20204 | -85.56227 | 30141 ft | 460 kts | 322° |
| 2026-05-04 03:04 | 32.25259 | -85.60786 | 30139 ft | 460 kts | 322° |
| 2026-05-04 03:04 | 32.30367 | -85.65386 | 30137 ft | 460 kts | 322° |
| 2026-05-04 03:05 | 32.35440 | -85.69956 | 30140 ft | 460 kts | 322° |
| 2026-05-04 03:05 | 32.40531 | -85.74548 | 30143 ft | 459 kts | 322° |
| 2026-05-04 03:06 | 32.45595 | -85.79122 | 30133 ft | 458 kts | 322° |
| 2026-05-04 03:06 | 32.50653 | -85.83698 | 30117 ft | 458 kts | 322° |
| 2026-05-04 03:07 | 32.55726 | -85.88294 | 30123 ft | 458 kts | 322° |
| 2026-05-04 03:07 | 32.60773 | -85.92874 | 30133 ft | 458 kts | 322° |
| 2026-05-04 03:08 | 32.65823 | -85.97461 | 30135 ft | 457 kts | 322° |
| 2026-05-04 03:08 | 32.70896 | -86.02078 | 30151 ft | 457 kts | 322° |
| 2026-05-04 03:09 | 32.75920 | -86.06657 | 30153 ft | 457 kts | 322° |
| 2026-05-04 03:09 | 32.80987 | -86.11281 | 30162 ft | 457 kts | 322° |
| 2026-05-04 03:10 | 32.85998 | -86.15874 | 30158 ft | 457 kts | 321° |
| 2026-05-04 03:10 | 32.91029 | -86.20500 | 30148 ft | 457 kts | 321° |
| 2026-05-04 03:11 | 32.96058 | -86.25117 | 30157 ft | 457 kts | 321° |
| 2026-05-04 03:11 | 33.01086 | -86.29733 | 30159 ft | 457 kts | 321° |
| 2026-05-04 03:12 | 33.06123 | -86.34364 | 30170 ft | 457 kts | 321° |
| 2026-05-04 03:12 | 33.11164 | -86.39005 | 30176 ft | 457 kts | 321° |
| 2026-05-04 03:13 | 33.16214 | -86.43662 | 30169 ft | 457 kts | 321° |
| 2026-05-04 03:13 | 33.21233 | -86.48297 | 30166 ft | 458 kts | 321° |
| 2026-05-04 03:14 | 33.26282 | -86.52967 | 30160 ft | 457 kts | 321° |
| 2026-05-04 03:14 | 33.31294 | -86.57610 | 30152 ft | 457 kts | 321° |
| 2026-05-04 03:15 | 33.36308 | -86.62262 | 30146 ft | 457 kts | 321° |
| 2026-05-04 03:15 | 33.41339 | -86.66935 | 30164 ft | 458 kts | 321° |
| 2026-05-04 03:16 | 33.46381 | -86.71627 | 30178 ft | 457 kts | 321° |
| 2026-05-04 03:16 | 33.51384 | -86.76301 | 30176 ft | 457 kts | 321° |
| 2026-05-04 03:17 | 33.56395 | -86.81001 | 30178 ft | 456 kts | 321° |
| 2026-05-04 03:17 | 33.61392 | -86.85680 | 30169 ft | 456 kts | 321° |
| 2026-05-04 03:18 | 33.66361 | -86.90408 | 30164 ft | 455 kts | 317° |
| 2026-05-04 03:18 | 33.70423 | -86.96175 | 30143 ft | 454 kts | 302° |
| 2026-05-04 03:19 | 33.73329 | -87.02904 | 30124 ft | 455 kts | 297° |
| 2026-05-04 03:19 | 33.76129 | -87.09701 | 30130 ft | 454 kts | 298° |
| 2026-05-04 03:20 | 33.79062 | -87.16409 | 30144 ft | 453 kts | 299° |
| 2026-05-04 03:20 | 33.82068 | -87.23100 | 30148 ft | 452 kts | 299° |
| 2026-05-04 03:21 | 33.85059 | -87.29737 | 30155 ft | 451 kts | 299° |
| 2026-05-04 03:21 | 33.88010 | -87.36305 | 30151 ft | 445 kts | 299° |
| 2026-05-04 03:22 | 33.90946 | -87.42864 | 30153 ft | 444 kts | 299° |
| 2026-05-04 03:22 | 33.93862 | -87.49418 | 30140 ft | 445 kts | 299° |
| 2026-05-04 03:23 | 33.96784 | -87.55982 | 30129 ft | 444 kts | 299° |
| 2026-05-04 03:23 | 33.99693 | -87.62518 | 30111 ft | 444 kts | 299° |
| 2026-05-04 03:24 | 34.02694 | -87.69029 | 30100 ft | 444 kts | 301° |
| 2026-05-04 03:24 | 34.05992 | -87.75313 | 30088 ft | 443 kts | 303° |
| 2026-05-04 03:25 | 34.09364 | -87.81558 | 30095 ft | 443 kts | 303° |
| 2026-05-04 03:25 | 34.12701 | -87.87781 | 30092 ft | 443 kts | 303° |
| 2026-05-04 03:26 | 34.16024 | -87.94018 | 30079 ft | 443 kts | 303° |
| 2026-05-04 03:26 | 34.19364 | -88.00308 | 30094 ft | 442 kts | 303° |
| 2026-05-04 03:27 | 34.22590 | -88.06585 | 30091 ft | 442 kts | 301° |
| 2026-05-04 03:27 | 34.25769 | -88.12980 | 30099 ft | 442 kts | 301° |
| 2026-05-04 03:28 | 34.28922 | -88.19341 | 30097 ft | 442 kts | 301° |
| 2026-05-04 03:28 | 34.32075 | -88.25691 | 30099 ft | 441 kts | 301° |
| 2026-05-04 03:29 | 34.35226 | -88.32064 | 30102 ft | 438 kts | 301° |
| 2026-05-04 03:29 | 34.38333 | -88.38376 | 30099 ft | 436 kts | 301° |
| 2026-05-04 03:30 | 34.41407 | -88.44627 | 29857 ft | 422 kts | 301° |
| 2026-05-04 03:30 | 34.42878 | -88.47620 | 29632 ft | 404 kts | 301° |
| 2026-05-04 03:30 | 34.44312 | -88.50540 | 29266 ft | 406 kts | 301° |
| 2026-05-04 03:30 | 34.45755 | -88.53481 | 28759 ft | 403 kts | 301° |
| 2026-05-04 03:31 | 34.47166 | -88.56358 | 28218 ft | 398 kts | 301° |
| 2026-05-04 03:31 | 34.48583 | -88.59248 | 27674 ft | 395 kts | 301° |
| 2026-05-04 03:31 | 34.49968 | -88.62077 | 27158 ft | 393 kts | 301° |
| 2026-05-04 03:31 | 34.51368 | -88.64940 | 26638 ft | 391 kts | 301° |
| 2026-05-04 03:32 | 34.52739 | -88.67744 | 26128 ft | 389 kts | 301° |
| 2026-05-04 03:32 | 34.54116 | -88.70565 | 25614 ft | 387 kts | 301° |
| 2026-05-04 03:32 | 34.55486 | -88.73372 | 25100 ft | 385 kts | 300° |
| 2026-05-04 03:32 | 34.56852 | -88.76172 | 24592 ft | 383 kts | 300° |
| 2026-05-04 03:33 | 34.58186 | -88.78911 | 24097 ft | 381 kts | 300° |
| 2026-05-04 03:33 | 34.59539 | -88.81690 | 23574 ft | 380 kts | 300° |
| 2026-05-04 03:33 | 34.60882 | -88.84451 | 23005 ft | 377 kts | 301° |
| 2026-05-04 03:33 | 34.62212 | -88.87187 | 22463 ft | 375 kts | 301° |
| 2026-05-04 03:34 | 34.63457 | -88.89903 | 21975 ft | 372 kts | 295° |
| 2026-05-04 03:34 | 34.64369 | -88.92844 | 21452 ft | 371 kts | 288° |
| 2026-05-04 03:34 | 34.65067 | -88.95827 | 20919 ft | 357 kts | 286° |
| 2026-05-04 03:34 | 34.65678 | -88.98734 | 20413 ft | 358 kts | 285° |
| 2026-05-04 03:35 | 34.66282 | -89.01658 | 19900 ft | 353 kts | 286° |
| 2026-05-04 03:35 | 34.66886 | -89.04553 | 19398 ft | 351 kts | 286° |
| 2026-05-04 03:35 | 34.67487 | -89.07388 | 18921 ft | 348 kts | 287° |
| 2026-05-04 03:35 | 34.68115 | -89.10224 | 18481 ft | 346 kts | 287° |
| 2026-05-04 03:36 | 34.68760 | -89.13050 | 17918 ft | 345 kts | 287° |
| 2026-05-04 03:36 | 34.69407 | -89.15854 | 17350 ft | 342 kts | 287° |
| 2026-05-04 03:36 | 34.70050 | -89.18631 | 16814 ft | 340 kts | 287° |
| 2026-05-04 03:36 | 34.70685 | -89.21373 | 16327 ft | 338 kts | 287° |
| 2026-05-04 03:37 | 34.71320 | -89.24113 | 16050 ft | 336 kts | 287° |
| 2026-05-04 03:37 | 34.71942 | -89.26839 | 15947 ft | 337 kts | 287° |
| 2026-05-04 03:37 | 34.72556 | -89.29589 | 15886 ft | 337 kts | 287° |
| 2026-05-04 03:37 | 34.73170 | -89.32359 | 15821 ft | 337 kts | 287° |
| 2026-05-04 03:38 | 34.73773 | -89.35085 | 15758 ft | 336 kts | 287° |
| 2026-05-04 03:38 | 34.74382 | -89.37839 | 15690 ft | 336 kts | 287° |
| 2026-05-04 03:38 | 34.74991 | -89.40593 | 15634 ft | 336 kts | 287° |
| 2026-05-04 03:38 | 34.75594 | -89.43320 | 15429 ft | 338 kts | 287° |
| 2026-05-04 03:39 | 34.76206 | -89.46089 | 15007 ft | 336 kts | 287° |
| 2026-05-04 03:39 | 34.76868 | -89.48807 | 14557 ft | 332 kts | 293° |
| 2026-05-04 03:39 | 34.77858 | -89.51311 | 14096 ft | 331 kts | 300° |
| 2026-05-04 03:39 | 34.79022 | -89.53731 | 13599 ft | 330 kts | 302° |
| 2026-05-04 03:40 | 34.80214 | -89.56079 | 13100 ft | 328 kts | 303° |
| 2026-05-04 03:40 | 34.81422 | -89.58438 | 12620 ft | 326 kts | 303° |
| 2026-05-04 03:40 | 34.82608 | -89.60761 | 12315 ft | 324 kts | 302° |
| 2026-05-04 03:40 | 34.83789 | -89.63087 | 12180 ft | 315 kts | 302° |
| 2026-05-04 03:41 | 34.84894 | -89.65273 | 12078 ft | 296 kts | 302° |
| 2026-05-04 03:41 | 34.85611 | -89.66695 | 11995 ft | 287 kts | 302° |
| 2026-05-04 03:41 | 34.86651 | -89.68756 | 11947 ft | 288 kts | 302° |
| 2026-05-04 03:41 | 34.88051 | -89.71534 | 11859 ft | 289 kts | 302° |
| 2026-05-04 03:42 | 34.88761 | -89.72942 | 11849 ft | 289 kts | 302° |
| 2026-05-04 03:42 | 34.89805 | -89.75015 | 11795 ft | 289 kts | 302° |
| 2026-05-04 03:42 | 34.90863 | -89.77118 | 11507 ft | 290 kts | 302° |
| 2026-05-04 03:42 | 34.91914 | -89.79206 | 11049 ft | 288 kts | 302° |
| 2026-05-04 03:43 | 34.92948 | -89.81266 | 10581 ft | 287 kts | 302° |
| 2026-05-04 03:43 | 34.94025 | -89.83309 | 10197 ft | 286 kts | 307° |
| 2026-05-04 03:43 | 34.95444 | -89.84983 | 9990 ft | 283 kts | 327° |
| 2026-05-04 03:43 | 34.97254 | -89.85848 | 9873 ft | 284 kts | 349° |
| 2026-05-04 03:44 | 34.99239 | -89.86068 | 9697 ft | 286 kts | 357° |
| 2026-05-04 03:44 | 35.01214 | -89.86108 | 9251 ft | 285 kts | 358° |
| 2026-05-04 03:44 | 35.03200 | -89.86114 | 8713 ft | 282 kts | 358° |
| 2026-05-04 03:44 | 35.05107 | -89.86120 | 8228 ft | 262 kts | 358° |
| 2026-05-04 03:45 | 35.06841 | -89.86131 | 7774 ft | 243 kts | 357° |
| 2026-05-04 03:45 | 35.08482 | -89.86150 | 7396 ft | 231 kts | 356° |
| 2026-05-04 03:45 | 35.10093 | -89.86176 | 7050 ft | 231 kts | 356° |
| 2026-05-04 03:45 | 35.11683 | -89.86204 | 6683 ft | 222 kts | 355° |
| 2026-05-04 03:46 | 35.13195 | -89.86230 | 6336 ft | 213 kts | 355° |
| 2026-05-04 03:46 | 35.14604 | -89.86253 | 5983 ft | 196 kts | 354° |
| 2026-05-04 03:46 | 35.15959 | -89.86279 | 5666 ft | 195 kts | 353° |
| 2026-05-04 03:46 | 35.17301 | -89.86308 | 5376 ft | 194 kts | 353° |
| 2026-05-04 03:47 | 35.18655 | -89.86337 | 5075 ft | 193 kts | 352° |
| 2026-05-04 03:47 | 35.19998 | -89.86365 | 4798 ft | 192 kts | 352° |
| 2026-05-04 03:47 | 35.21329 | -89.86394 | 4506 ft | 193 kts | 352° |
| 2026-05-04 03:47 | 35.22683 | -89.86425 | 4228 ft | 195 kts | 352° |
| 2026-05-04 03:48 | 35.24025 | -89.86454 | 3945 ft | 195 kts | 352° |
| 2026-05-04 03:48 | 35.25392 | -89.86484 | 3661 ft | 196 kts | 352° |
| 2026-05-04 03:48 | 35.26764 | -89.86513 | 3368 ft | 197 kts | 352° |
| 2026-05-04 03:48 | 35.28119 | -89.86543 | 3089 ft | 198 kts | 352° |
| 2026-05-04 03:49 | 35.29475 | -89.86693 | 2944 ft | 192 kts | 333° |
| 2026-05-04 03:49 | 35.30465 | -89.87617 | 2948 ft | 175 kts | 293° |
| 2026-05-04 03:49 | 35.30742 | -89.89008 | 3030 ft | 168 kts | 268° |
| 2026-05-04 03:49 | 35.30487 | -89.90371 | 2930 ft | 164 kts | 235° |
| 2026-05-04 03:50 | 35.29556 | -89.91134 | 2984 ft | 168 kts | 201° |
| 2026-05-04 03:50 | 35.28402 | -89.91457 | 3001 ft | 172 kts | 198° |
| 2026-05-04 03:50 | 35.27228 | -89.91760 | 2981 ft | 173 kts | 197° |
| 2026-05-04 03:50 | 35.26040 | -89.92078 | 2985 ft | 173 kts | 198° |
| 2026-05-04 03:51 | 35.24876 | -89.92387 | 2978 ft | 172 kts | 198° |
| 2026-05-04 03:51 | 35.23695 | -89.92702 | 2982 ft | 172 kts | 198° |
| 2026-05-04 03:51 | 35.22532 | -89.93011 | 2980 ft | 173 kts | 198° |
| 2026-05-04 03:51 | 35.21355 | -89.93318 | 2981 ft | 173 kts | 198° |
| 2026-05-04 03:52 | 35.20231 | -89.93808 | 2983 ft | 170 kts | 208° |
| 2026-05-04 03:52 | 35.19162 | -89.94396 | 2992 ft | 170 kts | 209° |
| 2026-05-04 03:52 | 35.18079 | -89.94986 | 2972 ft | 168 kts | 209° |
| 2026-05-04 03:52 | 35.17037 | -89.95543 | 2928 ft | 164 kts | 207° |
| 2026-05-04 03:53 | 35.15985 | -89.96056 | 2660 ft | 160 kts | 204° |
| 2026-05-04 03:53 | 35.14929 | -89.96428 | 2271 ft | 161 kts | 198° |
| 2026-05-04 03:53 | 35.13822 | -89.96702 | 1910 ft | 165 kts | 194° |
| 2026-05-04 03:53 | 35.12738 | -89.96982 | 1682 ft | 154 kts | 196° |
| 2026-05-04 03:54 | 35.11690 | -89.97191 | 1404 ft | 156 kts | 188° |
| 2026-05-04 03:54 | 35.10608 | -89.97275 | 1237 ft | 150 kts | 185° |
| 2026-05-04 03:54 | 35.09550 | -89.97321 | 1094 ft | 162 kts | 182° |
| 2026-05-04 03:54 | 35.08440 | -89.97322 | 999 ft | 155 kts | 180° |
| 2026-05-04 03:55 | 35.07378 | -89.97322 | 787 ft | 156 kts | 181° |
| 2026-05-04 03:55 | 35.06271 | -89.97310 | 600 ft | 153 kts | 179° |
| 2026-05-04 03:55 | 35.05189 | -89.97295 | 400 ft | 156 kts | 180° |
| 2026-05-04 03:55 | 35.04183 | -89.97279 | 312 ft | 125 kts | 179° |
| 2026-05-04 03:56 | 35.03516 | -89.97264 | 325 ft | 68 kts | 179° |
| 2026-05-04 03:56 | 35.03230 | -89.97347 | 328 ft | 24 kts | 215° |
| 2026-05-04 03:56 | 35.03174 | -89.97432 | 334 ft | 0 kts | 251° |
| 2026-05-04 04:00 | 35.03175 | -89.97435 | 334 ft | 1 kts | 263° |
| 2026-05-04 04:00 | 35.03181 | -89.97441 | 335 ft | 1 kts | 310° |
| 2026-05-04 04:00 | 35.03211 | -89.97442 | 338 ft | 10 kts | 3° |
| 2026-05-04 04:01 | 35.03333 | -89.97439 | 327 ft | 25 kts | 359° |
| 2026-05-04 04:01 | 35.03548 | -89.97444 | 324 ft | 37 kts | 359° |
| 2026-05-04 04:01 | 35.03833 | -89.97451 | 321 ft | 38 kts | 358° |
| 2026-05-04 04:01 | 35.04094 | -89.97458 | 318 ft | 38 kts | 359° |
| 2026-05-04 04:02 | 35.04357 | -89.97463 | 315 ft | 38 kts | 359° |
| 2026-05-04 04:02 | 35.04620 | -89.97469 | 305 ft | 37 kts | 359° |
| 2026-05-04 04:02 | 35.04886 | -89.97473 | 295 ft | 40 kts | 359° |
| 2026-05-04 04:02 | 35.05165 | -89.97478 | 296 ft | 40 kts | 359° |
| 2026-05-04 04:03 | 35.05449 | -89.97484 | 294 ft | 41 kts | 359° |
| 2026-05-04 04:03 | 35.05715 | -89.97485 | 285 ft | 35 kts | 360° |
| 2026-05-04 04:03 | 35.05905 | -89.97491 | 286 ft | 15 kts | 17° |
| 2026-05-04 04:03 | 35.05937 | -89.97387 | 286 ft | 14 kts | 91° |
| 2026-05-04 04:04 | 35.05934 | -89.97250 | 285 ft | 19 kts | 93° |
| 2026-05-04 04:04 | 35.05927 | -89.97064 | 287 ft | 24 kts | 92° |
| 2026-05-04 04:04 | 35.05924 | -89.96842 | 290 ft | 28 kts | 90° |
| 2026-05-04 04:04 | 35.05923 | -89.96606 | 296 ft | 22 kts | 77° |
| 2026-05-04 04:05 | 35.06035 | -89.96484 | 298 ft | 19 kts | 44° |
| 2026-05-04 04:05 | 35.06051 | -89.96356 | 298 ft | 13 kts | 93° |
| 2026-05-04 04:05 | 35.06018 | -89.96315 | 298 ft | 2 kts | 185° |
| 2026-05-04 04:05 | 35.05993 | -89.96321 | 301 ft | 6 kts | 187° |
| 2026-05-04 04:06 | 35.05978 | -89.96322 | 301 ft | 0 kts | 184° |